Back to Top

Language: 

My Weather Underground Personal Weather Station Historical Data with Graphs...

Delerius Weather Station Historical Data
Daily Summary for May 4, 2017 Units:  Both    English   Metric
« Previous Day
Next Day »
Daily Weekly Monthly Yearly Custom
  High: Low: Average:
Temperature: 59.4 °F /  15.2 °C 43.5 °F /  6.4 °C 51.3 °F /  10.7 °C
Dew Point: 43.7 °F /  6.5 °C 34.2 °F /  1.2 °C 40.2 °F /  4.6 °C
Humidity: 88 % 39 % 68 %
Wind Speed: 14.0 mph /  22.5 km/h - 7.4 mph /  11.9 km/h
Wind Gust: 29.0 mph /  46.7 km/h - -
Wind:- - ENE
Pressure: 30.38 in /  1028.7 hPa 30.30 in /  1026 hPa -
Precipitation: 0.00 in /  0 mm    
Historical Graphs
 
 
Tabular Data for May 4, 2017
Time Temperature Dew Point Pressure Wind Wind Speed Wind Gust Humidity Rainfall Rate (Hourly) solar Conditions
00:04 47.1 °F /  8.4 °C 42.8 °F /  6 °C 30.32 in /  1026.6 hPa NNE 6.0 mph /  9.7 km/h 13.0 mph /  20.9 km/h 85 % 0.00 in /  0 mm 0 W/m2
00:09 47.1 °F /  8.4 °C 42.8 °F /  6 °C 30.32 in /  1026.6 hPa NNE 6.0 mph /  9.7 km/h 13.0 mph /  20.9 km/h 85 % 0.00 in /  0 mm 0 W/m2
00:14 47.1 °F /  8.4 °C 42.8 °F /  6 °C 30.32 in /  1026.6 hPa NNE 6.0 mph /  9.7 km/h 11.0 mph /  17.7 km/h 85 % 0.00 in /  0 mm 0 W/m2
00:19 47.1 °F /  8.4 °C 43.1 °F /  6.2 °C 30.32 in /  1026.6 hPa NNE 6.0 mph /  9.7 km/h 13.0 mph /  20.9 km/h 86 % 0.00 in /  0 mm 0 W/m2
00:24 47.1 °F /  8.4 °C 43.1 °F /  6.2 °C 30.32 in /  1026.6 hPa NNE 7.0 mph /  11.3 km/h 15.0 mph /  24.1 km/h 86 % 0.00 in /  0 mm 0 W/m2
00:29 47.1 °F /  8.4 °C 43.1 °F /  6.2 °C 30.32 in /  1026.6 hPa NE 6.0 mph /  9.7 km/h 15.0 mph /  24.1 km/h 86 % 0.00 in /  0 mm 0 W/m2
00:34 47.1 °F /  8.4 °C 43.1 °F /  6.2 °C 30.32 in /  1026.6 hPa NNE 5.0 mph /  8 km/h 13.0 mph /  20.9 km/h 86 % 0.00 in /  0 mm 0 W/m2
00:39 47.1 °F /  8.4 °C 43.1 °F /  6.2 °C 30.32 in /  1026.6 hPa NE 6.0 mph /  9.7 km/h 13.0 mph /  20.9 km/h 86 % 0.00 in /  0 mm 0 W/m2
00:44 47.1 °F /  8.4 °C 42.8 °F /  6 °C 30.32 in /  1026.6 hPa NNE 5.0 mph /  8 km/h 12.0 mph /  19.3 km/h 85 % 0.00 in /  0 mm 0 W/m2
00:49 47.3 °F /  8.5 °C 43.3 °F /  6.3 °C 30.32 in /  1026.6 hPa NE 4.0 mph /  6.4 km/h 10.0 mph /  16.1 km/h 86 % 0.00 in /  0 mm 0 W/m2
00:54 47.3 °F /  8.5 °C 43.3 °F /  6.3 °C 30.32 in /  1026.6 hPa ENE 3.0 mph /  4.8 km/h 10.0 mph /  16.1 km/h 86 % 0.00 in /  0 mm 0 W/m2
00:59 47.3 °F /  8.5 °C 43.3 °F /  6.3 °C 30.32 in /  1026.6 hPa NE 5.0 mph /  8 km/h 12.0 mph /  19.3 km/h 86 % 0.00 in /  0 mm 0 W/m2
01:04 47.3 °F /  8.5 °C 43.3 °F /  6.3 °C 30.32 in /  1026.6 hPa NE 5.0 mph /  8 km/h 12.0 mph /  19.3 km/h 86 % 0.00 in /  0 mm 0 W/m2
01:09 47.3 °F /  8.5 °C 43.0 °F /  6.1 °C 30.31 in /  1026.3 hPa NE 3.0 mph /  4.8 km/h 9.0 mph /  14.5 km/h 85 % 0.00 in /  0 mm 0 W/m2
01:14 47.3 °F /  8.5 °C 43.0 °F /  6.1 °C 30.31 in /  1026.3 hPa NE 4.0 mph /  6.4 km/h 11.0 mph /  17.7 km/h 85 % 0.00 in /  0 mm 0 W/m2
01:19 47.3 °F /  8.5 °C 43.0 °F /  6.1 °C 30.31 in /  1026.3 hPa NNE 6.0 mph /  9.7 km/h 14.0 mph /  22.5 km/h 85 % 0.00 in /  0 mm 0 W/m2
01:24 47.3 °F /  8.5 °C 43.0 °F /  6.1 °C 30.31 in /  1026.3 hPa NNE 6.0 mph /  9.7 km/h 14.0 mph /  22.5 km/h 85 % 0.00 in /  0 mm 0 W/m2
01:29 47.3 °F /  8.5 °C 43.0 °F /  6.1 °C 30.31 in /  1026.3 hPa NNE 7.0 mph /  11.3 km/h 13.0 mph /  20.9 km/h 85 % 0.00 in /  0 mm 0 W/m2
01:34 47.3 °F /  8.5 °C 43.3 °F /  6.3 °C 30.31 in /  1026.3 hPa NNE 5.0 mph /  8 km/h 13.0 mph /  20.9 km/h 86 % 0.00 in /  0 mm 0 W/m2
01:39 47.3 °F /  8.5 °C 43.3 °F /  6.3 °C 30.31 in /  1026.3 hPa NNE 5.0 mph /  8 km/h 11.0 mph /  17.7 km/h 86 % 0.00 in /  0 mm 0 W/m2
01:44 47.3 °F /  8.5 °C 43.3 °F /  6.3 °C 30.31 in /  1026.3 hPa NNE 6.0 mph /  9.7 km/h 11.0 mph /  17.7 km/h 86 % 0.00 in /  0 mm 0 W/m2
01:49 47.3 °F /  8.5 °C 43.3 °F /  6.3 °C 30.31 in /  1026.3 hPa NE 5.0 mph /  8 km/h 13.0 mph /  20.9 km/h 86 % 0.00 in /  0 mm 0 W/m2
01:54 47.3 °F /  8.5 °C 43.3 °F /  6.3 °C 30.31 in /  1026.3 hPa NNE 4.0 mph /  6.4 km/h 13.0 mph /  20.9 km/h 86 % 0.00 in /  0 mm 0 W/m2
01:59 47.3 °F /  8.5 °C 43.3 °F /  6.3 °C 30.31 in /  1026.3 hPa NNE 3.0 mph /  4.8 km/h 12.0 mph /  19.3 km/h 86 % 0.00 in /  0 mm 0 W/m2
02:04 47.3 °F /  8.5 °C 43.3 °F /  6.3 °C 30.31 in /  1026.3 hPa NNE 3.0 mph /  4.8 km/h 10.0 mph /  16.1 km/h 86 % 0.00 in /  0 mm 0 W/m2
02:09 47.3 °F /  8.5 °C 43.3 °F /  6.3 °C 30.31 in /  1026.3 hPa NNE 5.0 mph /  8 km/h 11.0 mph /  17.7 km/h 86 % 0.00 in /  0 mm 0 W/m2
02:14 47.3 °F /  8.5 °C 43.3 °F /  6.3 °C 30.31 in /  1026.3 hPa NNE 5.0 mph /  8 km/h 11.0 mph /  17.7 km/h 86 % 0.00 in /  0 mm 0 W/m2
02:19 47.3 °F /  8.5 °C 43.3 °F /  6.3 °C 30.30 in /  1026 hPa NNE 5.0 mph /  8 km/h 12.0 mph /  19.3 km/h 86 % 0.00 in /  0 mm 0 W/m2
02:24 47.3 °F /  8.5 °C 43.3 °F /  6.3 °C 30.31 in /  1026.3 hPa NNE 5.0 mph /  8 km/h 12.0 mph /  19.3 km/h 86 % 0.00 in /  0 mm 0 W/m2
02:29 47.3 °F /  8.5 °C 43.3 °F /  6.3 °C 30.30 in /  1026 hPa NNE 6.0 mph /  9.7 km/h 12.0 mph /  19.3 km/h 86 % 0.00 in /  0 mm 0 W/m2
02:34 47.3 °F /  8.5 °C 43.3 °F /  6.3 °C 30.30 in /  1026 hPa NNE 5.0 mph /  8 km/h 12.0 mph /  19.3 km/h 86 % 0.00 in /  0 mm 0 W/m2
02:39 47.5 °F /  8.6 °C 43.5 °F /  6.4 °C 30.30 in /  1026 hPa NNE 5.0 mph /  8 km/h 14.0 mph /  22.5 km/h 86 % 0.00 in /  0 mm 0 W/m2
02:44 47.5 °F /  8.6 °C 43.5 °F /  6.4 °C 30.30 in /  1026 hPa NNE 6.0 mph /  9.7 km/h 14.0 mph /  22.5 km/h 86 % 0.00 in /  0 mm 0 W/m2
02:50 47.5 °F /  8.6 °C 43.5 °F /  6.4 °C 30.30 in /  1026 hPa NNE 5.0 mph /  8 km/h 12.0 mph /  19.3 km/h 86 % 0.00 in /  0 mm 0 W/m2
02:55 47.5 °F /  8.6 °C 43.5 °F /  6.4 °C 30.30 in /  1026 hPa NNE 6.0 mph /  9.7 km/h 14.0 mph /  22.5 km/h 86 % 0.00 in /  0 mm 0 W/m2
03:00 47.5 °F /  8.6 °C 43.5 °F /  6.4 °C 30.30 in /  1026 hPa NNE 6.0 mph /  9.7 km/h 14.0 mph /  22.5 km/h 86 % 0.00 in /  0 mm 0 W/m2
03:05 47.5 °F /  8.6 °C 43.5 °F /  6.4 °C 30.30 in /  1026 hPa NNE 6.0 mph /  9.7 km/h 12.0 mph /  19.3 km/h 86 % 0.00 in /  0 mm 0 W/m2
03:10 47.5 °F /  8.6 °C 43.5 °F /  6.4 °C 30.30 in /  1026 hPa NNE 4.0 mph /  6.4 km/h 12.0 mph /  19.3 km/h 86 % 0.00 in /  0 mm 0 W/m2
03:15 47.5 °F /  8.6 °C 43.5 °F /  6.4 °C 30.30 in /  1026 hPa NNE 4.0 mph /  6.4 km/h 9.0 mph /  14.5 km/h 86 % 0.00 in /  0 mm 0 W/m2
03:20 47.7 °F /  8.7 °C 43.7 °F /  6.5 °C 30.30 in /  1026 hPa NNE 5.0 mph /  8 km/h 11.0 mph /  17.7 km/h 86 % 0.00 in /  0 mm 0 W/m2
03:25 47.7 °F /  8.7 °C 43.7 °F /  6.5 °C 30.30 in /  1026 hPa NNE 6.0 mph /  9.7 km/h 11.0 mph /  17.7 km/h 86 % 0.00 in /  0 mm 0 W/m2
03:30 47.7 °F /  8.7 °C 43.7 °F /  6.5 °C 30.30 in /  1026 hPa NNE 6.0 mph /  9.7 km/h 11.0 mph /  17.7 km/h 86 % 0.00 in /  0 mm 0 W/m2
03:35 47.7 °F /  8.7 °C 43.7 °F /  6.5 °C 30.30 in /  1026 hPa NNE 6.0 mph /  9.7 km/h 11.0 mph /  17.7 km/h 86 % 0.00 in /  0 mm 0 W/m2
03:40 47.5 °F /  8.6 °C 43.5 °F /  6.4 °C 30.30 in /  1026 hPa NNE 7.0 mph /  11.3 km/h 11.0 mph /  17.7 km/h 86 % 0.00 in /  0 mm 0 W/m2
03:45 47.5 °F /  8.6 °C 43.5 °F /  6.4 °C 30.30 in /  1026 hPa NNE 7.0 mph /  11.3 km/h 12.0 mph /  19.3 km/h 86 % 0.00 in /  0 mm 0 W/m2
03:50 47.5 °F /  8.6 °C 43.5 °F /  6.4 °C 30.30 in /  1026 hPa NNE 6.0 mph /  9.7 km/h 13.0 mph /  20.9 km/h 86 % 0.00 in /  0 mm 0 W/m2
03:55 47.5 °F /  8.6 °C 43.5 °F /  6.4 °C 30.30 in /  1026 hPa NNE 7.0 mph /  11.3 km/h 15.0 mph /  24.1 km/h 86 % 0.00 in /  0 mm 0 W/m2
04:00 47.5 °F /  8.6 °C 43.5 °F /  6.4 °C 30.30 in /  1026 hPa NNE 8.0 mph /  12.9 km/h 16.0 mph /  25.7 km/h 86 % 0.00 in /  0 mm 0 W/m2
04:06 47.3 °F /  8.5 °C 43.3 °F /  6.3 °C 30.30 in /  1026 hPa NNE 9.0 mph /  14.5 km/h 16.0 mph /  25.7 km/h 86 % 0.00 in /  0 mm 0 W/m2
04:11 47.1 °F /  8.4 °C 43.1 °F /  6.2 °C 30.30 in /  1026 hPa NNE 8.0 mph /  12.9 km/h 15.0 mph /  24.1 km/h 86 % 0.00 in /  0 mm 0 W/m2
04:16 46.9 °F /  8.3 °C 43.0 °F /  6.1 °C 30.30 in /  1026 hPa NNE 7.0 mph /  11.3 km/h 15.0 mph /  24.1 km/h 86 % 0.00 in /  0 mm 0 W/m2
04:21 46.8 °F /  8.2 °C 42.8 °F /  6 °C 30.30 in /  1026 hPa NNE 7.0 mph /  11.3 km/h 14.0 mph /  22.5 km/h 86 % 0.00 in /  0 mm 0 W/m2
04:26 46.6 °F /  8.1 °C 42.9 °F /  6.1 °C 30.30 in /  1026 hPa NNE 6.0 mph /  9.7 km/h 14.0 mph /  22.5 km/h 87 % 0.00 in /  0 mm 0 W/m2
04:31 46.4 °F /  8 °C 42.7 °F /  5.9 °C 30.30 in /  1026 hPa NNE 6.0 mph /  9.7 km/h 14.0 mph /  22.5 km/h 87 % 0.00 in /  0 mm 0 W/m2
04:36 46.4 °F /  8 °C 42.7 °F /  5.9 °C 30.30 in /  1026 hPa NNE 6.0 mph /  9.7 km/h 14.0 mph /  22.5 km/h 87 % 0.00 in /  0 mm 0 W/m2
04:41 46.2 °F /  7.9 °C 42.6 °F /  5.9 °C 30.30 in /  1026 hPa NNE 6.0 mph /  9.7 km/h 14.0 mph /  22.5 km/h 87 % 0.00 in /  0 mm 0 W/m2
04:46 46.2 °F /  7.9 °C 42.6 °F /  5.9 °C 30.31 in /  1026.3 hPa NNE 5.0 mph /  8 km/h 11.0 mph /  17.7 km/h 87 % 0.00 in /  0 mm 0 W/m2
04:51 46.2 °F /  7.9 °C 42.9 °F /  6.1 °C 30.31 in /  1026.3 hPa NNE 6.0 mph /  9.7 km/h 13.0 mph /  20.9 km/h 88 % 0.00 in /  0 mm 0 W/m2
04:56 46.2 °F /  7.9 °C 42.9 °F /  6.1 °C 30.31 in /  1026.3 hPa NNE 6.0 mph /  9.7 km/h 13.0 mph /  20.9 km/h 88 % 0.00 in /  0 mm 0 W/m2
05:01 46.0 °F /  7.8 °C 42.7 °F /  5.9 °C 30.31 in /  1026.3 hPa North 6.0 mph /  9.7 km/h 12.0 mph /  19.3 km/h 88 % 0.00 in /  0 mm 0 W/m2
05:06 46.0 °F /  7.8 °C 42.7 °F /  5.9 °C 30.31 in /  1026.3 hPa North 6.0 mph /  9.7 km/h 12.0 mph /  19.3 km/h 88 % 0.00 in /  0 mm 0 W/m2
05:11 46.0 °F /  7.8 °C 42.7 °F /  5.9 °C 30.31 in /  1026.3 hPa North 5.0 mph /  8 km/h 10.0 mph /  16.1 km/h 88 % 0.00 in /  0 mm 0 W/m2
05:16 46.0 °F /  7.8 °C 42.7 °F /  5.9 °C 30.31 in /  1026.3 hPa NNE 5.0 mph /  8 km/h 10.0 mph /  16.1 km/h 88 % 0.00 in /  0 mm 0 W/m2
05:21 46.0 °F /  7.8 °C 42.7 °F /  5.9 °C 30.31 in /  1026.3 hPa NNE 6.0 mph /  9.7 km/h 11.0 mph /  17.7 km/h 88 % 0.00 in /  0 mm 0 W/m2
05:26 46.0 °F /  7.8 °C 42.7 °F /  5.9 °C 30.31 in /  1026.3 hPa NNE 6.0 mph /  9.7 km/h 11.0 mph /  17.7 km/h 88 % 0.00 in /  0 mm 5 W/m2
05:31 46.0 °F /  7.8 °C 42.7 °F /  5.9 °C 30.31 in /  1026.3 hPa NNE 5.0 mph /  8 km/h 11.0 mph /  17.7 km/h 88 % 0.00 in /  0 mm 9 W/m2
05:36 46.0 °F /  7.8 °C 42.7 °F /  5.9 °C 30.31 in /  1026.3 hPa NNE 5.0 mph /  8 km/h 11.0 mph /  17.7 km/h 88 % 0.00 in /  0 mm 11 W/m2
05:41 46.0 °F /  7.8 °C 42.7 °F /  5.9 °C 30.31 in /  1026.3 hPa NNE 5.0 mph /  8 km/h 11.0 mph /  17.7 km/h 88 % 0.00 in /  0 mm 12 W/m2
05:46 46.0 °F /  7.8 °C 42.7 °F /  5.9 °C 30.31 in /  1026.3 hPa NNE 5.0 mph /  8 km/h 10.0 mph /  16.1 km/h 88 % 0.00 in /  0 mm 16 W/m2
05:51 46.0 °F /  7.8 °C 42.7 °F /  5.9 °C 30.30 in /  1026 hPa NNE 4.0 mph /  6.4 km/h 9.0 mph /  14.5 km/h 88 % 0.00 in /  0 mm 19 W/m2
05:56 46.2 °F /  7.9 °C 42.9 °F /  6.1 °C 30.30 in /  1026 hPa NNE 4.0 mph /  6.4 km/h 7.0 mph /  11.3 km/h 88 % 0.00 in /  0 mm 25 W/m2
06:01 46.2 °F /  7.9 °C 42.9 °F /  6.1 °C 30.30 in /  1026 hPa NNE 4.0 mph /  6.4 km/h 8.0 mph /  12.9 km/h 88 % 0.00 in /  0 mm 30 W/m2
06:06 46.2 °F /  7.9 °C 42.6 °F /  5.9 °C 30.30 in /  1026 hPa NNE 4.0 mph /  6.4 km/h 8.0 mph /  12.9 km/h 87 % 0.00 in /  0 mm 37 W/m2
06:11 46.6 °F /  8.1 °C 42.9 °F /  6.1 °C 30.30 in /  1026 hPa NNE 3.0 mph /  4.8 km/h 8.0 mph /  12.9 km/h 87 % 0.00 in /  0 mm 44 W/m2
06:16 46.6 °F /  8.1 °C 42.6 °F /  5.9 °C 30.30 in /  1026 hPa NNE 2.0 mph /  3.2 km/h 7.0 mph /  11.3 km/h 86 % 0.00 in /  0 mm 51 W/m2
06:21 46.8 °F /  8.2 °C 42.8 °F /  6 °C 30.30 in /  1026 hPa NNE 1.0 mph /  1.6 km/h 7.0 mph /  11.3 km/h 86 % 0.00 in /  0 mm 58 W/m2
06:26 46.9 °F /  8.3 °C 42.7 °F /  5.9 °C 30.30 in /  1026 hPa NNE 3.0 mph /  4.8 km/h 9.0 mph /  14.5 km/h 85 % 0.00 in /  0 mm 54 W/m2
06:31 47.1 °F /  8.4 °C 42.8 °F /  6 °C 30.30 in /  1026 hPa NE 3.0 mph /  4.8 km/h 9.0 mph /  14.5 km/h 85 % 0.00 in /  0 mm 54 W/m2
06:36 47.1 °F /  8.4 °C 42.5 °F /  5.8 °C 30.30 in /  1026 hPa NE 2.0 mph /  3.2 km/h 6.0 mph /  9.7 km/h 84 % 0.00 in /  0 mm 54 W/m2
06:42 47.3 °F /  8.5 °C 42.7 °F /  5.9 °C 30.30 in /  1026 hPa NE 2.0 mph /  3.2 km/h 6.0 mph /  9.7 km/h 84 % 0.00 in /  0 mm 60 W/m2
06:47 47.5 °F /  8.6 °C 42.6 °F /  5.9 °C 30.30 in /  1026 hPa NE 1.0 mph /  1.6 km/h 7.0 mph /  11.3 km/h 83 % 0.00 in /  0 mm 65 W/m2
06:52 47.7 °F /  8.7 °C 42.4 °F /  5.8 °C 30.30 in /  1026 hPa NE 2.0 mph /  3.2 km/h 9.0 mph /  14.5 km/h 82 % 0.00 in /  0 mm 72 W/m2
06:57 47.7 °F /  8.7 °C 42.1 °F /  5.6 °C 30.30 in /  1026 hPa NE 4.0 mph /  6.4 km/h 9.0 mph /  14.5 km/h 81 % 0.00 in /  0 mm 77 W/m2
07:02 47.8 °F /  8.8 °C 42.3 °F /  5.7 °C 30.30 in /  1026 hPa NE 4.0 mph /  6.4 km/h 10.0 mph /  16.1 km/h 81 % 0.00 in /  0 mm 84 W/m2
07:07 47.8 °F /  8.8 °C 42.0 °F /  5.6 °C 30.30 in /  1026 hPa NE 4.0 mph /  6.4 km/h 10.0 mph /  16.1 km/h 80 % 0.00 in /  0 mm 84 W/m2
07:13 48.0 °F /  8.9 °C 41.8 °F /  5.4 °C 30.30 in /  1026 hPa NE 4.0 mph /  6.4 km/h 10.0 mph /  16.1 km/h 79 % 0.00 in /  0 mm 88 W/m2
07:18 48.2 °F /  9 °C 42.0 °F /  5.6 °C 30.30 in /  1026 hPa NE 6.0 mph /  9.7 km/h 12.0 mph /  19.3 km/h 79 % 0.00 in /  0 mm 97 W/m2
07:23 48.4 °F /  9.1 °C 41.8 °F /  5.4 °C 30.30 in /  1026 hPa NE 6.0 mph /  9.7 km/h 12.0 mph /  19.3 km/h 78 % 0.00 in /  0 mm 97 W/m2
07:28 48.6 °F /  9.2 °C 42.0 °F /  5.6 °C 30.30 in /  1026 hPa ENE 5.0 mph /  8 km/h 11.0 mph /  17.7 km/h 78 % 0.00 in /  0 mm 98 W/m2
07:33 48.6 °F /  9.2 °C 41.7 °F /  5.4 °C 30.30 in /  1026 hPa ENE 4.0 mph /  6.4 km/h 10.0 mph /  16.1 km/h 77 % 0.00 in /  0 mm 97 W/m2
07:38 48.7 °F /  9.3 °C 41.5 °F /  5.3 °C 30.30 in /  1026 hPa ENE 4.0 mph /  6.4 km/h 10.0 mph /  16.1 km/h 76 % 0.00 in /  0 mm 109 W/m2
07:43 48.9 °F /  9.4 °C 41.3 °F /  5.2 °C 30.30 in /  1026 hPa NE 5.0 mph /  8 km/h 11.0 mph /  17.7 km/h 75 % 0.00 in /  0 mm 120 W/m2
07:48 49.3 °F /  9.6 °C 41.7 °F /  5.4 °C 30.30 in /  1026 hPa NE 5.0 mph /  8 km/h 11.0 mph /  17.7 km/h 75 % 0.00 in /  0 mm 125 W/m2
07:53 49.5 °F /  9.7 °C 41.5 °F /  5.3 °C 30.31 in /  1026.3 hPa NE 5.0 mph /  8 km/h 11.0 mph /  17.7 km/h 74 % 0.00 in /  0 mm 123 W/m2
07:58 49.6 °F /  9.8 °C 41.3 °F /  5.2 °C 30.31 in /  1026.3 hPa ENE 6.0 mph /  9.7 km/h 18.0 mph /  29 km/h 73 % 0.00 in /  0 mm 128 W/m2
08:03 49.8 °F /  9.9 °C 41.2 °F /  5.1 °C 30.31 in /  1026.3 hPa ENE 7.0 mph /  11.3 km/h 18.0 mph /  29 km/h 72 % 0.00 in /  0 mm 134 W/m2
08:08 50.0 °F /  10 °C 41.0 °F /  5 °C 30.31 in /  1026.3 hPa ENE 8.0 mph /  12.9 km/h 15.0 mph /  24.1 km/h 71 % 0.00 in /  0 mm 148 W/m2
08:13 50.2 °F /  10.1 °C 40.8 °F /  4.9 °C 30.31 in /  1026.3 hPa ENE 7.0 mph /  11.3 km/h 14.0 mph /  22.5 km/h 70 % 0.00 in /  0 mm 156 W/m2
08:18 50.4 °F /  10.2 °C 40.6 °F /  4.8 °C 30.31 in /  1026.3 hPa ENE 7.0 mph /  11.3 km/h 14.0 mph /  22.5 km/h 69 % 0.00 in /  0 mm 156 W/m2
08:23 50.5 °F /  10.3 °C 40.4 °F /  4.7 °C 30.31 in /  1026.3 hPa ENE 6.0 mph /  9.7 km/h 13.0 mph /  20.9 km/h 68 % 0.00 in /  0 mm 151 W/m2
08:28 50.7 °F /  10.4 °C 40.5 °F /  4.7 °C 30.31 in /  1026.3 hPa ENE 6.0 mph /  9.7 km/h 15.0 mph /  24.1 km/h 68 % 0.00 in /  0 mm 186 W/m2
08:33 51.1 °F /  10.6 °C 40.9 °F /  4.9 °C 30.31 in /  1026.3 hPa ENE 7.0 mph /  11.3 km/h 15.0 mph /  24.1 km/h 68 % 0.00 in /  0 mm 185 W/m2
08:38 51.1 °F /  10.6 °C 40.5 °F /  4.7 °C 30.31 in /  1026.3 hPa ENE 8.0 mph /  12.9 km/h 15.0 mph /  24.1 km/h 67 % 0.00 in /  0 mm 195 W/m2
08:43 51.3 °F /  10.7 °C 40.7 °F /  4.8 °C 30.31 in /  1026.3 hPa ENE 9.0 mph /  14.5 km/h 16.0 mph /  25.7 km/h 67 % 0.00 in /  0 mm 216 W/m2
08:48 51.4 °F /  10.8 °C 40.8 °F /  4.9 °C 30.31 in /  1026.3 hPa ENE 8.0 mph /  12.9 km/h 16.0 mph /  25.7 km/h 67 % 0.00 in /  0 mm 230 W/m2
08:53 51.6 °F /  10.9 °C 41.4 °F /  5.2 °C 30.31 in /  1026.3 hPa ENE 7.0 mph /  11.3 km/h 14.0 mph /  22.5 km/h 68 % 0.00 in /  0 mm 214 W/m2
08:58 51.8 °F /  11 °C 40.8 °F /  4.9 °C 30.31 in /  1026.3 hPa ENE 6.0 mph /  9.7 km/h 12.0 mph /  19.3 km/h 66 % 0.00 in /  0 mm 221 W/m2
09:03 52.0 °F /  11.1 °C 40.6 °F /  4.8 °C 30.31 in /  1026.3 hPa ENE 7.0 mph /  11.3 km/h 19.0 mph /  30.6 km/h 65 % 0.00 in /  0 mm 209 W/m2
09:08 52.0 °F /  11.1 °C 40.6 °F /  4.8 °C 30.31 in /  1026.3 hPa ENE 8.0 mph /  12.9 km/h 19.0 mph /  30.6 km/h 65 % 0.00 in /  0 mm 209 W/m2
09:13 52.2 °F /  11.2 °C 40.7 °F /  4.8 °C 30.31 in /  1026.3 hPa ENE 8.0 mph /  12.9 km/h 15.0 mph /  24.1 km/h 65 % 0.00 in /  0 mm 209 W/m2
09:18 52.2 °F /  11.2 °C 40.3 °F /  4.6 °C 30.31 in /  1026.3 hPa ENE 8.0 mph /  12.9 km/h 15.0 mph /  24.1 km/h 64 % 0.00 in /  0 mm 200 W/m2
09:23 52.3 °F /  11.3 °C 40.5 °F /  4.7 °C 30.31 in /  1026.3 hPa ENE 8.0 mph /  12.9 km/h 14.0 mph /  22.5 km/h 64 % 0.00 in /  0 mm 204 W/m2
09:28 52.3 °F /  11.3 °C 40.1 °F /  4.5 °C 30.31 in /  1026.3 hPa ENE 8.0 mph /  12.9 km/h 14.0 mph /  22.5 km/h 63 % 0.00 in /  0 mm 281 W/m2
09:33 52.5 °F /  11.4 °C 39.9 °F /  4.4 °C 30.31 in /  1026.3 hPa ENE 7.0 mph /  11.3 km/h 15.0 mph /  24.1 km/h 62 % 0.00 in /  0 mm 362 W/m2
09:38 52.9 °F /  11.6 °C 39.8 °F /  4.3 °C 30.31 in /  1026.3 hPa ENE 8.0 mph /  12.9 km/h 15.0 mph /  24.1 km/h 61 % 0.00 in /  0 mm 396 W/m2
09:43 53.4 °F /  11.9 °C 40.3 °F /  4.6 °C 30.31 in /  1026.3 hPa ENE 8.0 mph /  12.9 km/h 15.0 mph /  24.1 km/h 61 % 0.00 in /  0 mm 517 W/m2
09:48 54.0 °F /  12.2 °C 39.9 °F /  4.4 °C 30.31 in /  1026.3 hPa ENE 8.0 mph /  12.9 km/h 16.0 mph /  25.7 km/h 59 % 0.00 in /  0 mm 425 W/m2
09:53 54.3 °F /  12.4 °C 39.4 °F /  4.1 °C 30.31 in /  1026.3 hPa ENE 10.0 mph /  16.1 km/h 23.0 mph /  37 km/h 57 % 0.00 in /  0 mm 401 W/m2
09:58 54.9 °F /  12.7 °C 39.0 °F /  3.9 °C 30.31 in /  1026.3 hPa ENE 12.0 mph /  19.3 km/h 23.0 mph /  37 km/h 55 % 0.00 in /  0 mm 731 W/m2
10:03 55.4 °F /  13 °C 39.0 °F /  3.9 °C 30.31 in /  1026.3 hPa ENE 12.0 mph /  19.3 km/h 22.0 mph /  35.4 km/h 54 % 0.00 in /  0 mm 712 W/m2
10:09 56.1 °F /  13.4 °C 38.7 °F /  3.7 °C 30.31 in /  1026.3 hPa ENE 12.0 mph /  19.3 km/h 23.0 mph /  37 km/h 52 % 0.00 in /  0 mm 714 W/m2
10:14 56.3 °F /  13.5 °C 38.4 °F /  3.6 °C 30.31 in /  1026.3 hPa ENE 12.0 mph /  19.3 km/h 26.0 mph /  41.8 km/h 51 % 0.00 in /  0 mm 745 W/m2
10:19 56.5 °F /  13.6 °C 38.6 °F /  3.7 °C 30.31 in /  1026.3 hPa ENE 11.0 mph /  17.7 km/h 26.0 mph /  41.8 km/h 51 % 0.00 in /  0 mm 738 W/m2
10:24 56.8 °F /  13.8 °C 38.4 °F /  3.6 °C 30.31 in /  1026.3 hPa East 10.0 mph /  16.1 km/h 21.0 mph /  33.8 km/h 50 % 0.00 in /  0 mm 737 W/m2
10:29 57.2 °F /  14 °C 39.2 °F /  4 °C 30.30 in /  1026 hPa ENE 10.0 mph /  16.1 km/h 24.0 mph /  38.6 km/h 51 % 0.00 in /  0 mm 751 W/m2
10:34 57.2 °F /  14 °C 37.7 °F /  3.2 °C 30.31 in /  1026.3 hPa ENE 11.0 mph /  17.7 km/h 24.0 mph /  38.6 km/h 48 % 0.00 in /  0 mm 756 W/m2
10:39 57.4 °F /  14.1 °C 37.8 °F /  3.2 °C 30.31 in /  1026.3 hPa ENE 10.0 mph /  16.1 km/h 21.0 mph /  33.8 km/h 48 % 0.00 in /  0 mm 619 W/m2
10:44 57.4 °F /  14.1 °C 38.4 °F /  3.6 °C 30.31 in /  1026.3 hPa ENE 8.0 mph /  12.9 km/h 16.0 mph /  25.7 km/h 49 % 0.00 in /  0 mm 510 W/m2
10:49 57.2 °F /  14 °C 37.7 °F /  3.2 °C 30.31 in /  1026.3 hPa ENE 9.0 mph /  14.5 km/h 27.0 mph /  43.5 km/h 48 % 0.00 in /  0 mm 527 W/m2
10:54 56.7 °F /  13.7 °C 38.2 °F /  3.4 °C 30.31 in /  1026.3 hPa ENE 12.0 mph /  19.3 km/h 27.0 mph /  43.5 km/h 50 % 0.00 in /  0 mm 860 W/m2
10:59 57.4 °F /  14.1 °C 38.9 °F /  3.8 °C 30.30 in /  1026 hPa ENE 11.0 mph /  17.7 km/h 22.0 mph /  35.4 km/h 50 % 0.00 in /  0 mm 780 W/m2
11:04 58.3 °F /  14.6 °C 39.2 °F /  4 °C 30.31 in /  1026.3 hPa East 9.0 mph /  14.5 km/h 22.0 mph /  35.4 km/h 49 % 0.00 in /  0 mm 770 W/m2
11:09 58.3 °F /  14.6 °C 38.7 °F /  3.7 °C 30.30 in /  1026 hPa ENE 10.0 mph /  16.1 km/h 20.0 mph /  32.2 km/h 48 % 0.00 in /  0 mm 777 W/m2
11:14 58.5 °F /  14.7 °C 38.3 °F /  3.5 °C 30.31 in /  1026.3 hPa East 11.0 mph /  17.7 km/h 21.0 mph /  33.8 km/h 47 % 0.00 in /  0 mm 788 W/m2
11:19 58.6 °F /  14.8 °C 37.9 °F /  3.3 °C 30.30 in /  1026 hPa East 11.0 mph /  17.7 km/h 21.0 mph /  33.8 km/h 46 % 0.00 in /  0 mm 791 W/m2
11:24 58.8 °F /  14.9 °C 38.1 °F /  3.4 °C 30.30 in /  1026 hPa East 11.0 mph /  17.7 km/h 20.0 mph /  32.2 km/h 46 % 0.00 in /  0 mm 803 W/m2
11:29 59.4 °F /  15.2 °C 38.6 °F /  3.7 °C 30.30 in /  1026 hPa ENE 9.0 mph /  14.5 km/h 19.0 mph /  30.6 km/h 46 % 0.00 in /  0 mm 812 W/m2
11:34 59.2 °F /  15.1 °C 37.3 °F /  2.9 °C 30.31 in /  1026.3 hPa ENE 11.0 mph /  17.7 km/h 25.0 mph /  40.2 km/h 44 % 0.00 in /  0 mm 809 W/m2
11:39 58.8 °F /  14.9 °C 37.5 °F /  3.1 °C 30.30 in /  1026 hPa ENE 12.0 mph /  19.3 km/h 25.0 mph /  40.2 km/h 45 % 0.00 in /  0 mm 844 W/m2
11:44 58.8 °F /  14.9 °C 38.1 °F /  3.4 °C 30.30 in /  1026 hPa East 11.0 mph /  17.7 km/h 24.0 mph /  38.6 km/h 46 % 0.00 in /  0 mm 849 W/m2
11:49 59.0 °F /  15 °C 37.7 °F /  3.2 °C 30.31 in /  1026.3 hPa ENE 11.0 mph /  17.7 km/h 19.0 mph /  30.6 km/h 45 % 0.00 in /  0 mm 842 W/m2
11:54 59.0 °F /  15 °C 38.2 °F /  3.4 °C 30.31 in /  1026.3 hPa ENE 10.0 mph /  16.1 km/h 23.0 mph /  37 km/h 46 % 0.00 in /  0 mm 860 W/m2
11:59 59.2 °F /  15.1 °C 36.7 °F /  2.6 °C 30.30 in /  1026 hPa ENE 12.0 mph /  19.3 km/h 29.0 mph /  46.7 km/h 43 % 0.00 in /  0 mm 868 W/m2
12:04 58.6 °F /  14.8 °C 36.8 °F /  2.7 °C 30.31 in /  1026.3 hPa ENE 14.0 mph /  22.5 km/h 29.0 mph /  46.7 km/h 44 % 0.00 in /  0 mm 844 W/m2
12:09 59.0 °F /  15 °C 37.7 °F /  3.2 °C 30.31 in /  1026.3 hPa ENE 12.0 mph /  19.3 km/h 25.0 mph /  40.2 km/h 45 % 0.00 in /  0 mm 846 W/m2
12:14 58.8 °F /  14.9 °C 36.9 °F /  2.7 °C 30.31 in /  1026.3 hPa ENE 12.0 mph /  19.3 km/h 27.0 mph /  43.5 km/h 44 % 0.00 in /  0 mm 851 W/m2
12:19 58.8 °F /  14.9 °C 36.4 °F /  2.4 °C 30.31 in /  1026.3 hPa ENE 13.0 mph /  20.9 km/h 27.0 mph /  43.5 km/h 43 % 0.00 in /  0 mm 858 W/m2
12:24 59.0 °F /  15 °C 35.9 °F /  2.2 °C 30.31 in /  1026.3 hPa ENE 13.0 mph /  20.9 km/h 24.0 mph /  38.6 km/h 42 % 0.00 in /  0 mm 837 W/m2
12:29 58.8 °F /  14.9 °C 36.4 °F /  2.4 °C 30.31 in /  1026.3 hPa ENE 13.0 mph /  20.9 km/h 24.0 mph /  38.6 km/h 43 % 0.00 in /  0 mm 849 W/m2
12:34 58.8 °F /  14.9 °C 35.2 °F /  1.8 °C 30.31 in /  1026.3 hPa ENE 13.0 mph /  20.9 km/h 26.0 mph /  41.8 km/h 41 % 0.00 in /  0 mm 870 W/m2
12:39 58.8 °F /  14.9 °C 34.5 °F /  1.4 °C 30.31 in /  1026.3 hPa ENE 12.0 mph /  19.3 km/h 27.0 mph /  43.5 km/h 40 % 0.00 in /  0 mm 868 W/m2
12:44 58.8 °F /  14.9 °C 35.8 °F /  2.1 °C 30.31 in /  1026.3 hPa East 12.0 mph /  19.3 km/h 27.0 mph /  43.5 km/h 42 % 0.00 in /  0 mm 877 W/m2
12:50 59.0 °F /  15 °C 34.7 °F /  1.5 °C 30.31 in /  1026.3 hPa East 11.0 mph /  17.7 km/h 22.0 mph /  35.4 km/h 40 % 0.00 in /  0 mm 884 W/m2
12:55 59.2 °F /  15.1 °C 34.2 °F /  1.2 °C 30.31 in /  1026.3 hPa East 11.0 mph /  17.7 km/h 23.0 mph /  37 km/h 39 % 0.00 in /  0 mm 882 W/m2
13:00 59.2 °F /  15.1 °C 34.9 °F /  1.6 °C 30.31 in /  1026.3 hPa East 11.0 mph /  17.7 km/h 25.0 mph /  40.2 km/h 40 % 0.00 in /  0 mm 847 W/m2
13:05 59.0 °F /  15 °C 35.3 °F /  1.8 °C 30.31 in /  1026.3 hPa East 11.0 mph /  17.7 km/h 25.0 mph /  40.2 km/h 41 % 0.00 in /  0 mm 840 W/m2
13:10 58.6 °F /  14.8 °C 34.4 °F /  1.3 °C 30.31 in /  1026.3 hPa East 12.0 mph /  19.3 km/h 23.0 mph /  37 km/h 40 % 0.00 in /  0 mm 860 W/m2
13:11 58.6 °F /  14.8 °C 35.0 °F /  1.7 °C 30.31 in /  1026.3 hPa East 12.0 mph /  19.3 km/h 23.0 mph /  37 km/h 41 % 0.00 in /  0 mm 863 W/m2
13:16 58.6 °F /  14.8 °C 35.0 °F /  1.7 °C 30.31 in /  1026.3 hPa East 11.0 mph /  17.7 km/h 25.0 mph /  40.2 km/h 41 % 0.00 in /  0 mm 870 W/m2
13:21 58.3 °F /  14.6 °C 34.7 °F /  1.5 °C 30.31 in /  1026.3 hPa ENE 12.0 mph /  19.3 km/h 26.0 mph /  41.8 km/h 41 % 0.00 in /  0 mm 872 W/m2
13:26 58.3 °F /  14.6 °C 36.4 °F /  2.4 °C 30.30 in /  1026 hPa ENE 11.0 mph /  17.7 km/h 26.0 mph /  41.8 km/h 44 % 0.00 in /  0 mm 868 W/m2
13:31 58.3 °F /  14.6 °C 35.3 °F /  1.8 °C 30.30 in /  1026 hPa East 11.0 mph /  17.7 km/h 21.0 mph /  33.8 km/h 42 % 0.00 in /  0 mm 865 W/m2
13:36 58.3 °F /  14.6 °C 36.4 °F /  2.4 °C 30.30 in /  1026 hPa East 12.0 mph /  19.3 km/h 24.0 mph /  38.6 km/h 44 % 0.00 in /  0 mm 853 W/m2
13:41 58.1 °F /  14.5 °C 35.7 °F /  2.1 °C 30.31 in /  1026.3 hPa East 13.0 mph /  20.9 km/h 26.0 mph /  41.8 km/h 43 % 0.00 in /  0 mm 858 W/m2
13:46 58.3 °F /  14.6 °C 35.9 °F /  2.2 °C 30.31 in /  1026.3 hPa ENE 12.0 mph /  19.3 km/h 26.0 mph /  41.8 km/h 43 % 0.00 in /  0 mm 861 W/m2
13:52 58.1 °F /  14.5 °C 36.3 °F /  2.4 °C 30.31 in /  1026.3 hPa ENE 11.0 mph /  17.7 km/h 26.0 mph /  41.8 km/h 44 % 0.00 in /  0 mm 853 W/m2
13:57 58.5 °F /  14.7 °C 36.6 °F /  2.6 °C 30.31 in /  1026.3 hPa East 11.0 mph /  17.7 km/h 26.0 mph /  41.8 km/h 44 % 0.00 in /  0 mm 849 W/m2
14:02 58.6 °F /  14.8 °C 36.8 °F /  2.7 °C 30.31 in /  1026.3 hPa East 11.0 mph /  17.7 km/h 21.0 mph /  33.8 km/h 44 % 0.00 in /  0 mm 847 W/m2
14:07 58.3 °F /  14.6 °C 36.4 °F /  2.4 °C 30.31 in /  1026.3 hPa East 12.0 mph /  19.3 km/h 21.0 mph /  33.8 km/h 44 % 0.00 in /  0 mm 840 W/m2
14:12 58.5 °F /  14.7 °C 36.6 °F /  2.6 °C 30.31 in /  1026.3 hPa ENE 11.0 mph /  17.7 km/h 19.0 mph /  30.6 km/h 44 % 0.00 in /  0 mm 830 W/m2
14:17 58.3 °F /  14.6 °C 37.0 °F /  2.8 °C 30.31 in /  1026.3 hPa ENE 11.0 mph /  17.7 km/h 23.0 mph /  37 km/h 45 % 0.00 in /  0 mm 833 W/m2
14:22 58.3 °F /  14.6 °C 35.9 °F /  2.2 °C 30.31 in /  1026.3 hPa ENE 11.0 mph /  17.7 km/h 25.0 mph /  40.2 km/h 43 % 0.00 in /  0 mm 830 W/m2
14:27 58.1 °F /  14.5 °C 36.9 °F /  2.7 °C 30.31 in /  1026.3 hPa ENE 11.0 mph /  17.7 km/h 25.0 mph /  40.2 km/h 45 % 0.00 in /  0 mm 823 W/m2
14:32 58.5 °F /  14.7 °C 37.2 °F /  2.9 °C 30.31 in /  1026.3 hPa East 10.0 mph /  16.1 km/h 25.0 mph /  40.2 km/h 45 % 0.00 in /  0 mm 824 W/m2
14:37 58.3 °F /  14.6 °C 35.9 °F /  2.2 °C 30.31 in /  1026.3 hPa ENE 10.0 mph /  16.1 km/h 23.0 mph /  37 km/h 43 % 0.00 in /  0 mm 795 W/m2
14:42 58.3 °F /  14.6 °C 35.9 °F /  2.2 °C 30.31 in /  1026.3 hPa ENE 11.0 mph /  17.7 km/h 23.0 mph /  37 km/h 43 % 0.00 in /  0 mm 800 W/m2
14:47 57.9 °F /  14.4 °C 36.1 °F /  2.3 °C 30.31 in /  1026.3 hPa ENE 11.0 mph /  17.7 km/h 20.0 mph /  32.2 km/h 44 % 0.00 in /  0 mm 800 W/m2
14:52 57.9 °F /  14.4 °C 36.1 °F /  2.3 °C 30.30 in /  1026 hPa ENE 11.0 mph /  17.7 km/h 25.0 mph /  40.2 km/h 44 % 0.00 in /  0 mm 786 W/m2
14:57 58.3 °F /  14.6 °C 36.4 °F /  2.4 °C 30.30 in /  1026 hPa ENE 10.0 mph /  16.1 km/h 25.0 mph /  40.2 km/h 44 % 0.00 in /  0 mm 780 W/m2
15:02 58.6 °F /  14.8 °C 36.2 °F /  2.3 °C 30.30 in /  1026 hPa ENE 9.0 mph /  14.5 km/h 19.0 mph /  30.6 km/h 43 % 0.00 in /  0 mm 770 W/m2
15:07 58.6 °F /  14.8 °C 35.6 °F /  2 °C 30.30 in /  1026 hPa ENE 9.0 mph /  14.5 km/h 21.0 mph /  33.8 km/h 42 % 0.00 in /  0 mm 761 W/m2
15:12 58.3 °F /  14.6 °C 35.9 °F /  2.2 °C 30.31 in /  1026.3 hPa ENE 12.0 mph /  19.3 km/h 23.0 mph /  37 km/h 43 % 0.00 in /  0 mm 759 W/m2
15:17 58.1 °F /  14.5 °C 36.3 °F /  2.4 °C 30.30 in /  1026 hPa ENE 12.0 mph /  19.3 km/h 23.0 mph /  37 km/h 44 % 0.00 in /  0 mm 747 W/m2
15:22 58.5 °F /  14.7 °C 37.7 °F /  3.2 °C 30.30 in /  1026 hPa ENE 10.0 mph /  16.1 km/h 19.0 mph /  30.6 km/h 46 % 0.00 in /  0 mm 731 W/m2
15:27 58.3 °F /  14.6 °C 37.6 °F /  3.1 °C 30.30 in /  1026 hPa East 10.0 mph /  16.1 km/h 21.0 mph /  33.8 km/h 46 % 0.00 in /  0 mm 731 W/m2
15:32 58.5 °F /  14.7 °C 38.8 °F /  3.8 °C 30.30 in /  1026 hPa ENE 9.0 mph /  14.5 km/h 21.0 mph /  33.8 km/h 48 % 0.00 in /  0 mm 717 W/m2
15:37 58.3 °F /  14.6 °C 38.7 °F /  3.7 °C 30.30 in /  1026 hPa ENE 9.0 mph /  14.5 km/h 25.0 mph /  40.2 km/h 48 % 0.00 in /  0 mm 708 W/m2
15:42 58.3 °F /  14.6 °C 39.2 °F /  4 °C 30.30 in /  1026 hPa ENE 8.0 mph /  12.9 km/h 25.0 mph /  40.2 km/h 49 % 0.00 in /  0 mm 705 W/m2
15:47 58.1 °F /  14.5 °C 39.0 °F /  3.9 °C 30.30 in /  1026 hPa East 8.0 mph /  12.9 km/h 19.0 mph /  30.6 km/h 49 % 0.00 in /  0 mm 373 W/m2
15:52 57.9 °F /  14.4 °C 37.8 °F /  3.2 °C 30.30 in /  1026 hPa East 9.0 mph /  14.5 km/h 19.0 mph /  30.6 km/h 47 % 0.00 in /  0 mm 680 W/m2
15:57 57.7 °F /  14.3 °C 38.2 °F /  3.4 °C 30.30 in /  1026 hPa East 10.0 mph /  16.1 km/h 21.0 mph /  33.8 km/h 48 % 0.00 in /  0 mm 675 W/m2
16:02 57.6 °F /  14.2 °C 39.6 °F /  4.2 °C 30.30 in /  1026 hPa ENE 11.0 mph /  17.7 km/h 21.0 mph /  33.8 km/h 51 % 0.00 in /  0 mm 661 W/m2
16:07 57.7 °F /  14.3 °C 39.7 °F /  4.3 °C 30.30 in /  1026 hPa East 10.0 mph /  16.1 km/h 18.0 mph /  29 km/h 51 % 0.00 in /  0 mm 624 W/m2
16:08 57.7 °F /  14.3 °C 39.7 °F /  4.3 °C 30.30 in /  1026 hPa East 9.0 mph /  14.5 km/h 18.0 mph /  29 km/h 51 % 0.00 in /  0 mm 624 W/m2
16:13 57.2 °F /  14 °C 38.2 °F /  3.4 °C 30.30 in /  1026 hPa East 10.0 mph /  16.1 km/h 23.0 mph /  37 km/h 49 % 0.00 in /  0 mm 601 W/m2
16:18 56.8 °F /  13.8 °C 38.4 °F /  3.6 °C 30.30 in /  1026 hPa ENE 12.0 mph /  19.3 km/h 23.0 mph /  37 km/h 50 % 0.00 in /  0 mm 633 W/m2
16:23 56.7 °F /  13.7 °C 38.2 °F /  3.4 °C 30.30 in /  1026 hPa ENE 12.0 mph /  19.3 km/h 24.0 mph /  38.6 km/h 50 % 0.00 in /  0 mm 619 W/m2
16:28 56.7 °F /  13.7 °C 38.2 °F /  3.4 °C 30.30 in /  1026 hPa ENE 12.0 mph /  19.3 km/h 24.0 mph /  38.6 km/h 50 % 0.00 in /  0 mm 608 W/m2
16:33 56.7 °F /  13.7 °C 38.2 °F /  3.4 °C 30.30 in /  1026 hPa ENE 10.0 mph /  16.1 km/h 22.0 mph /  35.4 km/h 50 % 0.00 in /  0 mm 591 W/m2
16:38 56.7 °F /  13.7 °C 38.2 °F /  3.4 °C 30.30 in /  1026 hPa East 10.0 mph /  16.1 km/h 21.0 mph /  33.8 km/h 50 % 0.00 in /  0 mm 564 W/m2
16:43 56.8 °F /  13.8 °C 38.4 °F /  3.6 °C 30.30 in /  1026 hPa East 9.0 mph /  14.5 km/h 21.0 mph /  33.8 km/h 50 % 0.00 in /  0 mm 564 W/m2
16:48 56.8 °F /  13.8 °C 37.9 °F /  3.3 °C 30.30 in /  1026 hPa ENE 10.0 mph /  16.1 km/h 18.0 mph /  29 km/h 49 % 0.00 in /  0 mm 545 W/m2
16:53 56.5 °F /  13.6 °C 38.1 °F /  3.4 °C 30.30 in /  1026 hPa ENE 10.0 mph /  16.1 km/h 19.0 mph /  30.6 km/h 50 % 0.00 in /  0 mm 538 W/m2
16:58 56.7 °F /  13.7 °C 38.2 °F /  3.4 °C 30.30 in /  1026 hPa ENE 9.0 mph /  14.5 km/h 19.0 mph /  30.6 km/h 50 % 0.00 in /  0 mm 522 W/m2
17:03 56.8 °F /  13.8 °C 37.9 °F /  3.3 °C 30.30 in /  1026 hPa ENE 8.0 mph /  12.9 km/h 19.0 mph /  30.6 km/h 49 % 0.00 in /  0 mm 515 W/m2
17:08 56.7 °F /  13.7 °C 38.2 °F /  3.4 °C 30.30 in /  1026 hPa East 9.0 mph /  14.5 km/h 19.0 mph /  30.6 km/h 50 % 0.00 in /  0 mm 503 W/m2
17:14 56.3 °F /  13.5 °C 36.3 °F /  2.4 °C 30.30 in /  1026 hPa East 10.0 mph /  16.1 km/h 19.0 mph /  30.6 km/h 47 % 0.00 in /  0 mm 494 W/m2
17:19 55.9 °F /  13.3 °C 36.0 °F /  2.2 °C 30.30 in /  1026 hPa East 10.0 mph /  16.1 km/h 19.0 mph /  30.6 km/h 47 % 0.00 in /  0 mm 475 W/m2
17:24 55.8 °F /  13.2 °C 36.9 °F /  2.7 °C 30.30 in /  1026 hPa East 10.0 mph /  16.1 km/h 19.0 mph /  30.6 km/h 49 % 0.00 in /  0 mm 485 W/m2
17:29 55.8 °F /  13.2 °C 37.9 °F /  3.3 °C 30.30 in /  1026 hPa East 10.0 mph /  16.1 km/h 19.0 mph /  30.6 km/h 51 % 0.00 in /  0 mm 478 W/m2
17:34 55.9 °F /  13.3 °C 38.1 °F /  3.4 °C 30.30 in /  1026 hPa East 10.0 mph /  16.1 km/h 19.0 mph /  30.6 km/h 51 % 0.00 in /  0 mm 483 W/m2
17:39 55.8 °F /  13.2 °C 37.9 °F /  3.3 °C 30.30 in /  1026 hPa East 10.0 mph /  16.1 km/h 20.0 mph /  32.2 km/h 51 % 0.00 in /  0 mm 476 W/m2
17:44 55.6 °F /  13.1 °C 38.7 °F /  3.7 °C 30.30 in /  1026 hPa ENE 10.0 mph /  16.1 km/h 20.0 mph /  32.2 km/h 53 % 0.00 in /  0 mm 403 W/m2
17:49 55.6 °F /  13.1 °C 38.7 °F /  3.7 °C 30.31 in /  1026.3 hPa ENE 10.0 mph /  16.1 km/h 19.0 mph /  30.6 km/h 53 % 0.00 in /  0 mm 366 W/m2
17:54 55.2 °F /  12.9 °C 38.4 °F /  3.6 °C 30.31 in /  1026.3 hPa ENE 10.0 mph /  16.1 km/h 20.0 mph /  32.2 km/h 53 % 0.00 in /  0 mm 341 W/m2
17:59 54.9 °F /  12.7 °C 39.0 °F /  3.9 °C 30.31 in /  1026.3 hPa ENE 10.0 mph /  16.1 km/h 20.0 mph /  32.2 km/h 55 % 0.00 in /  0 mm 274 W/m2
18:04 54.7 °F /  12.6 °C 38.8 °F /  3.8 °C 30.31 in /  1026.3 hPa ENE 10.0 mph /  16.1 km/h 20.0 mph /  32.2 km/h 55 % 0.00 in /  0 mm 267 W/m2
18:09 54.3 °F /  12.4 °C 39.4 °F /  4.1 °C 30.31 in /  1026.3 hPa East 9.0 mph /  14.5 km/h 15.0 mph /  24.1 km/h 57 % 0.00 in /  0 mm 220 W/m2
18:14 54.3 °F /  12.4 °C 40.3 °F /  4.6 °C 30.31 in /  1026.3 hPa ENE 7.0 mph /  11.3 km/h 14.0 mph /  22.5 km/h 59 % 0.00 in /  0 mm 199 W/m2
18:19 54.1 °F /  12.3 °C 40.6 °F /  4.8 °C 30.32 in /  1026.6 hPa ENE 8.0 mph /  12.9 km/h 15.0 mph /  24.1 km/h 60 % 0.00 in /  0 mm 163 W/m2
18:24 53.8 °F /  12.1 °C 41.1 °F /  5.1 °C 30.32 in /  1026.6 hPa ENE 8.0 mph /  12.9 km/h 15.0 mph /  24.1 km/h 62 % 0.00 in /  0 mm 216 W/m2
18:29 53.4 °F /  11.9 °C 40.7 °F /  4.8 °C 30.32 in /  1026.6 hPa ENE 8.0 mph /  12.9 km/h 20.0 mph /  32.2 km/h 62 % 0.00 in /  0 mm 176 W/m2
18:34 53.1 °F /  11.7 °C 40.8 °F /  4.9 °C 30.32 in /  1026.6 hPa ENE 9.0 mph /  14.5 km/h 20.0 mph /  32.2 km/h 63 % 0.00 in /  0 mm 139 W/m2
18:39 52.5 °F /  11.4 °C 40.7 °F /  4.8 °C 30.32 in /  1026.6 hPa ENE 9.0 mph /  14.5 km/h 19.0 mph /  30.6 km/h 64 % 0.00 in /  0 mm 130 W/m2
18:44 52.3 °F /  11.3 °C 40.9 °F /  4.9 °C 30.33 in /  1027 hPa ENE 8.0 mph /  12.9 km/h 20.0 mph /  32.2 km/h 65 % 0.00 in /  0 mm 181 W/m2
18:49 52.2 °F /  11.2 °C 41.1 °F /  5.1 °C 30.33 in /  1027 hPa ENE 8.0 mph /  12.9 km/h 20.0 mph /  32.2 km/h 66 % 0.00 in /  0 mm 223 W/m2
18:54 52.0 °F /  11.1 °C 41.0 °F /  5 °C 30.33 in /  1027 hPa East 8.0 mph /  12.9 km/h 19.0 mph /  30.6 km/h 66 % 0.00 in /  0 mm 102 W/m2
18:59 51.6 °F /  10.9 °C 41.0 °F /  5 °C 30.33 in /  1027 hPa ENE 10.0 mph /  16.1 km/h 18.0 mph /  29 km/h 67 % 0.00 in /  0 mm 206 W/m2
19:04 51.6 °F /  10.9 °C 41.4 °F /  5.2 °C 30.33 in /  1027 hPa ENE 8.0 mph /  12.9 km/h 18.0 mph /  29 km/h 68 % 0.00 in /  0 mm 132 W/m2
19:09 51.4 °F /  10.8 °C 41.2 °F /  5.1 °C 30.33 in /  1027 hPa ENE 8.0 mph /  12.9 km/h 18.0 mph /  29 km/h 68 % 0.00 in /  0 mm 47 W/m2
19:14 50.9 °F /  10.5 °C 41.1 °F /  5.1 °C 30.34 in /  1027.3 hPa ENE 8.0 mph /  12.9 km/h 15.0 mph /  24.1 km/h 69 % 0.00 in /  0 mm 35 W/m2
19:19 50.5 °F /  10.3 °C 41.1 °F /  5.1 °C 30.34 in /  1027.3 hPa East 7.0 mph /  11.3 km/h 15.0 mph /  24.1 km/h 70 % 0.00 in /  0 mm 37 W/m2
19:24 50.0 °F /  10 °C 41.0 °F /  5 °C 30.34 in /  1027.3 hPa ENE 8.0 mph /  12.9 km/h 21.0 mph /  33.8 km/h 71 % 0.00 in /  0 mm 37 W/m2
19:29 49.6 °F /  9.8 °C 41.0 °F /  5 °C 30.34 in /  1027.3 hPa ENE 9.0 mph /  14.5 km/h 21.0 mph /  33.8 km/h 72 % 0.00 in /  0 mm 26 W/m2
19:34 49.5 °F /  9.7 °C 41.2 °F /  5.1 °C 30.34 in /  1027.3 hPa ENE 6.0 mph /  9.7 km/h 15.0 mph /  24.1 km/h 73 % 0.00 in /  0 mm 25 W/m2
19:39 49.5 °F /  9.7 °C 41.2 °F /  5.1 °C 30.34 in /  1027.3 hPa ENE 6.0 mph /  9.7 km/h 15.0 mph /  24.1 km/h 73 % 0.00 in /  0 mm 19 W/m2
19:44 49.5 °F /  9.7 °C 41.2 °F /  5.1 °C 30.34 in /  1027.3 hPa ENE 8.0 mph /  12.9 km/h 15.0 mph /  24.1 km/h 73 % 0.00 in /  0 mm 16 W/m2
19:49 49.5 °F /  9.7 °C 41.2 °F /  5.1 °C 30.34 in /  1027.3 hPa ENE 7.0 mph /  11.3 km/h 16.0 mph /  25.7 km/h 73 % 0.00 in /  0 mm 14 W/m2
19:54 49.5 °F /  9.7 °C 41.2 °F /  5.1 °C 30.34 in /  1027.3 hPa ENE 6.0 mph /  9.7 km/h 16.0 mph /  25.7 km/h 73 % 0.00 in /  0 mm 14 W/m2
19:59 49.3 °F /  9.6 °C 41.0 °F /  5 °C 30.34 in /  1027.3 hPa ENE 6.0 mph /  9.7 km/h 14.0 mph /  22.5 km/h 73 % 0.00 in /  0 mm 18 W/m2
20:04 49.3 °F /  9.6 °C 41.0 °F /  5 °C 30.34 in /  1027.3 hPa ENE 7.0 mph /  11.3 km/h 15.0 mph /  24.1 km/h 73 % 0.00 in /  0 mm 19 W/m2
20:09 49.1 °F /  9.5 °C 40.8 °F /  4.9 °C 30.35 in /  1027.7 hPa ENE 7.0 mph /  11.3 km/h 15.0 mph /  24.1 km/h 73 % 0.00 in /  0 mm 19 W/m2
20:14 48.7 °F /  9.3 °C 40.5 °F /  4.7 °C 30.35 in /  1027.7 hPa ENE 8.0 mph /  12.9 km/h 16.0 mph /  25.7 km/h 73 % 0.00 in /  0 mm 18 W/m2
20:19 48.7 °F /  9.3 °C 40.5 °F /  4.7 °C 30.35 in /  1027.7 hPa ENE 8.0 mph /  12.9 km/h 16.0 mph /  25.7 km/h 73 % 0.00 in /  0 mm 18 W/m2
20:24 48.6 °F /  9.2 °C 40.6 °F /  4.8 °C 30.35 in /  1027.7 hPa ENE 6.0 mph /  9.7 km/h 13.0 mph /  20.9 km/h 74 % 0.00 in /  0 mm 14 W/m2
20:29 48.6 °F /  9.2 °C 40.6 °F /  4.8 °C 30.35 in /  1027.7 hPa ENE 6.0 mph /  9.7 km/h 13.0 mph /  20.9 km/h 74 % 0.00 in /  0 mm 11 W/m2
20:30 48.6 °F /  9.2 °C 40.6 °F /  4.8 °C 30.35 in /  1027.7 hPa ENE 6.0 mph /  9.7 km/h 13.0 mph /  20.9 km/h 74 % 0.00 in /  0 mm 11 W/m2
20:35 48.6 °F /  9.2 °C 40.6 °F /  4.8 °C 30.35 in /  1027.7 hPa East 5.0 mph /  8 km/h 11.0 mph /  17.7 km/h 74 % 0.00 in /  0 mm 7 W/m2
20:40 48.4 °F /  9.1 °C 40.8 °F /  4.9 °C 30.35 in /  1027.7 hPa East 5.0 mph /  8 km/h 12.0 mph /  19.3 km/h 75 % 0.00 in /  0 mm 5 W/m2
20:45 48.4 °F /  9.1 °C 40.8 °F /  4.9 °C 30.36 in /  1028 hPa East 5.0 mph /  8 km/h 12.0 mph /  19.3 km/h 75 % 0.00 in /  0 mm 0 W/m2
20:50 48.2 °F /  9 °C 40.6 °F /  4.8 °C 30.36 in /  1028 hPa ENE 6.0 mph /  9.7 km/h 14.0 mph /  22.5 km/h 75 % 0.00 in /  0 mm 0 W/m2
20:55 48.0 °F /  8.9 °C 40.5 °F /  4.7 °C 30.36 in /  1028 hPa ENE 6.0 mph /  9.7 km/h 15.0 mph /  24.1 km/h 75 % 0.00 in /  0 mm 0 W/m2
21:00 47.8 °F /  8.8 °C 40.6 °F /  4.8 °C 30.36 in /  1028 hPa East 5.0 mph /  8 km/h 15.0 mph /  24.1 km/h 76 % 0.00 in /  0 mm 0 W/m2
21:05 47.7 °F /  8.7 °C 40.5 °F /  4.7 °C 30.36 in /  1028 hPa ENE 5.0 mph /  8 km/h 12.0 mph /  19.3 km/h 76 % 0.00 in /  0 mm 0 W/m2
21:10 47.5 °F /  8.6 °C 40.3 °F /  4.6 °C 30.36 in /  1028 hPa ENE 7.0 mph /  11.3 km/h 14.0 mph /  22.5 km/h 76 % 0.00 in /  0 mm 0 W/m2
21:15 47.1 °F /  8.4 °C 40.3 °F /  4.6 °C 30.37 in /  1028.3 hPa ENE 7.0 mph /  11.3 km/h 14.0 mph /  22.5 km/h 77 % 0.00 in /  0 mm 0 W/m2
21:20 46.9 °F /  8.3 °C 40.1 °F /  4.5 °C 30.36 in /  1028 hPa ENE 6.0 mph /  9.7 km/h 13.0 mph /  20.9 km/h 77 % 0.00 in /  0 mm 0 W/m2
21:25 46.8 °F /  8.2 °C 40.3 °F /  4.6 °C 30.37 in /  1028.3 hPa ENE 4.0 mph /  6.4 km/h 13.0 mph /  20.9 km/h 78 % 0.00 in /  0 mm 0 W/m2
21:30 46.6 °F /  8.1 °C 40.1 °F /  4.5 °C 30.37 in /  1028.3 hPa ENE 3.0 mph /  4.8 km/h 8.0 mph /  12.9 km/h 78 % 0.00 in /  0 mm 0 W/m2
21:36 46.4 °F /  8 °C 39.9 °F /  4.4 °C 30.37 in /  1028.3 hPa ENE 3.0 mph /  4.8 km/h 10.0 mph /  16.1 km/h 78 % 0.00 in /  0 mm 0 W/m2
21:41 46.2 °F /  7.9 °C 40.1 °F /  4.5 °C 30.37 in /  1028.3 hPa ENE 3.0 mph /  4.8 km/h 10.0 mph /  16.1 km/h 79 % 0.00 in /  0 mm 0 W/m2
21:45 46.0 °F /  7.8 °C 39.9 °F /  4.4 °C 30.37 in /  1028.3 hPa ENE 3.0 mph /  4.8 km/h 9.0 mph /  14.5 km/h 79 % 0.00 in /  0 mm 0 W/m2
21:50 45.9 °F /  7.7 °C 40.0 °F /  4.4 °C 30.37 in /  1028.3 hPa ENE 4.0 mph /  6.4 km/h 9.0 mph /  14.5 km/h 80 % 0.00 in /  0 mm 0 W/m2
21:56 45.7 °F /  7.6 °C 39.9 °F /  4.4 °C 30.37 in /  1028.3 hPa ENE 4.0 mph /  6.4 km/h 9.0 mph /  14.5 km/h 80 % 0.00 in /  0 mm 0 W/m2
22:01 45.7 °F /  7.6 °C 39.9 °F /  4.4 °C 30.37 in /  1028.3 hPa ENE 5.0 mph /  8 km/h 11.0 mph /  17.7 km/h 80 % 0.00 in /  0 mm 0 W/m2
22:06 45.5 °F /  7.5 °C 40.0 °F /  4.4 °C 30.37 in /  1028.3 hPa ENE 6.0 mph /  9.7 km/h 11.0 mph /  17.7 km/h 81 % 0.00 in /  0 mm 0 W/m2
22:10 45.3 °F /  7.4 °C 39.8 °F /  4.3 °C 30.37 in /  1028.3 hPa ENE 6.0 mph /  9.7 km/h 11.0 mph /  17.7 km/h 81 % 0.00 in /  0 mm 0 W/m2
22:16 45.3 °F /  7.4 °C 39.8 °F /  4.3 °C 30.37 in /  1028.3 hPa ENE 5.0 mph /  8 km/h 11.0 mph /  17.7 km/h 81 % 0.00 in /  0 mm 0 W/m2
22:21 45.1 °F /  7.3 °C 40.0 °F /  4.4 °C 30.37 in /  1028.3 hPa ENE 5.0 mph /  8 km/h 10.0 mph /  16.1 km/h 82 % 0.00 in /  0 mm 0 W/m2
22:26 45.1 °F /  7.3 °C 40.0 °F /  4.4 °C 30.37 in /  1028.3 hPa ENE 6.0 mph /  9.7 km/h 10.0 mph /  16.1 km/h 82 % 0.00 in /  0 mm 0 W/m2
22:31 45.0 °F /  7.2 °C 39.8 °F /  4.3 °C 30.37 in /  1028.3 hPa NE 6.0 mph /  9.7 km/h 11.0 mph /  17.7 km/h 82 % 0.00 in /  0 mm 0 W/m2
22:36 45.0 °F /  7.2 °C 39.8 °F /  4.3 °C 30.37 in /  1028.3 hPa NE 6.0 mph /  9.7 km/h 12.0 mph /  19.3 km/h 82 % 0.00 in /  0 mm 0 W/m2
22:41 44.8 °F /  7.1 °C 39.6 °F /  4.2 °C 30.37 in /  1028.3 hPa NE 6.0 mph /  9.7 km/h 13.0 mph /  20.9 km/h 82 % 0.00 in /  0 mm 0 W/m2
22:46 44.8 °F /  7.1 °C 39.9 °F /  4.4 °C 30.37 in /  1028.3 hPa NE 6.0 mph /  9.7 km/h 13.0 mph /  20.9 km/h 83 % 0.00 in /  0 mm 0 W/m2
22:51 44.6 °F /  7 °C 39.8 °F /  4.3 °C 30.37 in /  1028.3 hPa NE 7.0 mph /  11.3 km/h 12.0 mph /  19.3 km/h 83 % 0.00 in /  0 mm 0 W/m2
22:56 44.4 °F /  6.9 °C 39.6 °F /  4.2 °C 30.37 in /  1028.3 hPa NE 6.0 mph /  9.7 km/h 12.0 mph /  19.3 km/h 83 % 0.00 in /  0 mm 0 W/m2
23:01 44.4 °F /  6.9 °C 39.9 °F /  4.4 °C 30.37 in /  1028.3 hPa NE 5.0 mph /  8 km/h 13.0 mph /  20.9 km/h 84 % 0.00 in /  0 mm 0 W/m2
23:06 44.2 °F /  6.8 °C 39.7 °F /  4.3 °C 30.37 in /  1028.3 hPa NE 5.0 mph /  8 km/h 13.0 mph /  20.9 km/h 84 % 0.00 in /  0 mm 0 W/m2
23:11 44.2 °F /  6.8 °C 40.0 °F /  4.4 °C 30.37 in /  1028.3 hPa ENE 5.0 mph /  8 km/h 9.0 mph /  14.5 km/h 85 % 0.00 in /  0 mm 0 W/m2
23:16 44.2 °F /  6.8 °C 40.0 °F /  4.4 °C 30.38 in /  1028.7 hPa ENE 3.0 mph /  4.8 km/h 8.0 mph /  12.9 km/h 85 % 0.00 in /  0 mm 0 W/m2
23:21 44.1 °F /  6.7 °C 39.8 °F /  4.3 °C 30.38 in /  1028.7 hPa ENE 3.0 mph /  4.8 km/h 8.0 mph /  12.9 km/h 85 % 0.00 in /  0 mm 0 W/m2
23:26 44.1 °F /  6.7 °C 39.8 °F /  4.3 °C 30.38 in /  1028.7 hPa ENE 4.0 mph /  6.4 km/h 9.0 mph /  14.5 km/h 85 % 0.00 in /  0 mm 0 W/m2
23:31 43.9 °F /  6.6 °C 40.0 °F /  4.4 °C 30.38 in /  1028.7 hPa ENE 4.0 mph /  6.4 km/h 10.0 mph /  16.1 km/h 86 % 0.00 in /  0 mm 0 W/m2
23:36 43.9 °F /  6.6 °C 40.0 °F /  4.4 °C 30.38 in /  1028.7 hPa NE 3.0 mph /  4.8 km/h 10.0 mph /  16.1 km/h 86 % 0.00 in /  0 mm 0 W/m2
23:41 43.7 °F /  6.5 °C 39.8 °F /  4.3 °C 30.38 in /  1028.7 hPa NE 3.0 mph /  4.8 km/h 9.0 mph /  14.5 km/h 86 % 0.00 in /  0 mm 0 W/m2
23:46 43.7 °F /  6.5 °C 40.1 °F /  4.5 °C 30.38 in /  1028.7 hPa NE 4.0 mph /  6.4 km/h 9.0 mph /  14.5 km/h 87 % 0.00 in /  0 mm 0 W/m2
23:51 43.5 °F /  6.4 °C 39.9 °F /  4.4 °C 30.38 in /  1028.7 hPa NE 4.0 mph /  6.4 km/h 8.0 mph /  12.9 km/h 87 % 0.00 in /  0 mm 0 W/m2
23:56 43.5 °F /  6.4 °C 40.2 °F /  4.6 °C 30.38 in /  1028.7 hPa NE 4.0 mph /  6.4 km/h 8.0 mph /  12.9 km/h 88 % 0.00 in /  0 mm 0 W/m2
Delerius-Weather
Compliments of Weather Underground - 2.25 mb

Data updates at regular intervals.